METAR Data
IDs: Format: Raw Decoded Include TAF

Data at: 1235 UTC 09 Dec 2019

KLUG 091215Z AUTO 18016KT 10SM OVC017 14/09 A2987 RMK A01
KLUG 091155Z AUTO 18014G20KT 10SM OVC018 14/09 A2988 RMK A01
KLUG 091135Z AUTO 18013G20KT 10SM OVC019 14/09 A2988 RMK A01
KLUG 091115Z AUTO 17017G23KT 10SM OVC020 14/09 A2989 RMK A01
KLUG 091055Z AUTO 17012G17KT 10SM OVC020 14/09 A2989 RMK A01
KLUG 091035Z AUTO 17009G19KT 10SM OVC021 14/09 A2990 RMK A01
KLUG 091015Z AUTO 18012KT 10SM OVC022 13/08 A2990 RMK A01
KLUG 090955Z AUTO 17009G16KT 10SM OVC023 13/08 A2990 RMK A01
KLUG 090935Z AUTO 17010KT 10SM OVC023 13/08 A2991 RMK A01
KLUG 090915Z AUTO 16008G15KT 10SM OVC023 13/07 A2992 RMK A01
KLUG 090855Z AUTO 16008G13KT 10SM OVC024 13/07 A2993 RMK A01
KLUG 090835Z AUTO 16010G18KT 10SM OVC025 13/07 A2993 RMK A01
KLUG 090815Z AUTO 16011G18KT 10SM OVC025 13/07 A2993 RMK A01
KLUG 090755Z AUTO 16010KT 10SM OVC025 13/07 A2994 RMK A01
KLUG 090735Z AUTO 16011G17KT 10SM OVC024 13/07 A2995 RMK A01
KLUG 090715Z AUTO 17008G25KT 10SM OVC024 13/07 A2995 RMK A01
KLUG 090655Z AUTO 17012KT 10SM OVC024 13/06 A2995 RMK A01
KLUG 090635Z AUTO 16012KT 10SM OVC026 13/06 A2996 RMK A01
KLUG 090615Z AUTO 16011G17KT 10SM OVC025 14/07 A2996 RMK A01
KLUG 090555Z AUTO 16009KT 10SM OVC026 14/06 A2999 RMK A01
KLUG 090535Z AUTO 17008G14KT 10SM OVC026 14/06 A3000 RMK A01
KLUG 090515Z AUTO 16010G18KT 10SM OVC027 14/06 A3000 RMK A01
KLUG 090455Z AUTO 16010G16KT 10SM BKN026 OVC045 14/06 A2999 RMK A01
KLUG 090435Z AUTO 18013G19KT 10SM SCT028 OVC047 14/06 A3000 RMK A01
KLUG 090415Z AUTO 17011G18KT 10SM BKN028 OVC044 14/06 A2999 RMK A01
KLUG 090355Z AUTO 17010KT 10SM FEW030 BKN038 OVC044 14/06 A3000 RMK A01
KLUG 090335Z AUTO 16012G18KT 10SM OVC036 14/06 A2999 RMK A01
KLUG 090315Z AUTO 16011G19KT 10SM BKN029 OVC035 14/06 A3000 RMK A01
KLUG 090255Z AUTO 16012G17KT 10SM OVC028 14/06 A2999 RMK A01
KLUG 090235Z AUTO 16012G18KT 10SM SCT028 BKN035 OVC120 14/06 A2999 RMK A01
KLUG 090215Z AUTO 15011KT 10SM BKN035 BKN050 OVC120 14/06 A2999 RMK A01
KLUG 090155Z AUTO 17012KT 10SM OVC034 14/06 A3001 RMK A01
KLUG 090135Z AUTO 17011KT 10SM OVC035 14/06 A3003 RMK A01
KLUG 090115Z AUTO 17008KT 10SM BKN037 OVC060 14/06 A3003 RMK A01
KLUG 090055Z AUTO 16008G14KT 10SM BKN037 OVC060 14/06 A3004 RMK A01
KLUG 090035Z AUTO 16008G14KT 10SM BKN036 BKN044 OVC050 14/06 A3005 RMK A01
KLUG 090015Z AUTO 16010KT 10SM BKN037 BKN046 BKN065 14/06 A3004 RMK A01
KLUG 082355Z AUTO 16009KT 10SM BKN039 OVC060 14/06 A3005 RMK A01
KLUG 082335Z AUTO 15009G16KT 10SM BKN039 OVC060 14/06 A3005 RMK A01
KLUG 082315Z AUTO 16007KT 10SM OVC038 14/06 A3004 RMK A01
KLUG 082255Z AUTO 14009KT 10SM BKN039 OVC050 15/06 A3004 RMK A01
KLUG 082235Z AUTO 16010KT 10SM SCT039 BKN050 BKN070 15/07 A3004 RMK A01
KLUG 082215Z AUTO 16009KT 10SM BKN040 OVC055 15/07 A3005 RMK A01
KLUG 082155Z AUTO 17007G13KT 10SM BKN040 OVC050 15/07 A3006 RMK A01
KLUG 082135Z AUTO 15009G15KT 10SM OVC038 16/07 A3006 RMK A01
KLUG 082115Z AUTO 15008G13KT 10SM BKN038 OVC044 16/07 A3006 RMK A01
KLUG 082055Z AUTO 16007G13KT 10SM BKN038 BKN050 OVC070 15/07 A3006 RMK A01
KLUG 082035Z AUTO 18008KT 10SM BKN037 OVC048 15/07 A3008 RMK A01
KLUG 082015Z AUTO 16011KT 10SM BKN038 BKN049 OVC070 16/07 A3008 RMK A01
KLUG 081955Z AUTO 17010G16KT 10SM OVC038 16/07 A3007 RMK A01
KLUG 081935Z AUTO 16009G14KT 10SM OVC038 16/07 A3008 RMK A01
KLUG 081915Z AUTO 17010G19KT 10SM OVC039 16/07 A3009 RMK A01
KLUG 081855Z AUTO 16011G17KT 10SM OVC039 16/07 A3009 RMK A01
KLUG 081835Z AUTO 17014KT 10SM BKN039 BKN050 OVC065 16/07 A3009 RMK A01
KLUG 081815Z AUTO 19012G18KT 10SM FEW038 BKN050 OVC060 17/07 A3011 RMK A01
KLUG 081755Z AUTO 17011G18KT 10SM SCT039 BKN047 OVC055 16/07 A3012 RMK A01
KLUG 081735Z AUTO 18013G18KT 9SM BKN038 BKN046 OVC065 15/07 A3013 RMK A01
KLUG 081715Z AUTO 18012G19KT 10SM SCT038 OVC055 15/07 A3015 RMK A01
KLUG 081655Z AUTO 18012G19KT 10SM OVC060 15/07 A3016 RMK A01
KLUG 081635Z AUTO 18015KT 10SM OVC055 14/07 A3017 RMK A01
KLUG 081615Z AUTO 17017KT 10SM OVC055 14/06 A3018 RMK A01
KLUG 081555Z AUTO 17015G22KT 10SM OVC055 14/06 A3019 RMK A01
KLUG 081535Z AUTO 16012G18KT 10SM OVC055 14/06 A3019 RMK A01
KLUG 081515Z AUTO 16013KT 10SM FEW045 OVC055 13/06 A3020 RMK A01
KLUG 081455Z AUTO 16010G16KT 10SM FEW045 OVC055 13/06 A3020 RMK A01
KLUG 081435Z AUTO 16008KT 10SM FEW045 BKN055 12/06 A3020 RMK A01
KLUG 081415Z AUTO 17006G13KT 10SM OVC055 11/06 A3020 RMK A01
KLUG 081355Z AUTO 16006KT 10SM OVC055 11/06 A3020 RMK A01
KLUG 081335Z AUTO 16006KT 10SM OVC055 10/06 A3020 RMK A01
KLUG 081315Z AUTO 00000KT 10SM FEW048 OVC055 05/04 A3020 RMK A01
KLUG 081255Z AUTO 00000KT 9SM OVC050 03/03 A3021 RMK A01
KLUG 081235Z AUTO 00000KT 9SM OVC050 02/02 A3020 RMK A01
KLUG 081215Z AUTO 00000KT 9SM OVC050 01/01 A3020 RMK A01
KLUG 081155Z AUTO 00000KT 7SM OVC050 01/00 A3020 RMK A01
KLUG 081135Z AUTO 00000KT 9SM OVC050 00/M00 A3020 RMK A01
KLUG 081115Z AUTO 00000KT 6SM BR OVC050 M01/M01 A3020 RMK A01
KLUG 081055Z AUTO 00000KT 6SM BR BKN050 M01/M01 A3019 RMK A01
KLUG 081035Z AUTO 00000KT 5SM BR FEW050 M01/M02 A3019 RMK A01
KLUG 081015Z AUTO 00000KT 6SM BR FEW050 M01/M01 A3018 RMK A01
KLUG 080955Z AUTO 00000KT 9SM FEW049 M01/M01 A3018 RMK A01
KLUG 080935Z AUTO 00000KT 8SM SCT047 M01/M01 A3018 RMK A01
KLUG 080915Z AUTO 00000KT 7SM BKN047 M01/M01 A3018 RMK A01
KLUG 080855Z AUTO 00000KT 7SM BKN049 M00/M01 A3019 RMK A01
KLUG 080835Z AUTO 00000KT 1SM BR FEW033 OVC048 M00/M01 A3020 RMK A01
KLUG 080815Z AUTO 00000KT 4SM BR FEW002 SCT033 BKN047 M01/M01 A3021 RMK A01
KLUG 080755Z AUTO 00000KT 2 1/2SM BR BKN002 BKN025 M00/M01 A3021 RMK A01 VIS 3/4V5
KLUG 080735Z AUTO 00000KT 8SM OVC002 M00/M01 A3022 RMK A01
KLUG 080715Z AUTO 00000KT 4SM BR BKN002 BKN027 BKN032 M00/M01 A3022 RMK A01
KLUG 080655Z AUTO 00000KT 3SM BR CLR M01/M01 A3022 RMK A01
KLUG 080635Z AUTO 00000KT 8SM CLR M00/M00 A3022 RMK A01
KLUG 080615Z AUTO 00000KT 7SM CLR 00/M00 A3022 RMK A01
KLUG 080555Z AUTO 00000KT 8SM CLR 00/M00 A3022 RMK A01
KLUG 080535Z AUTO 00000KT 8SM CLR 00/00 A3023 RMK A01
KLUG 080515Z AUTO 00000KT 5SM BR FEW045 00/M00 A3023 RMK A01
KLUG 080455Z AUTO 00000KT 5SM BR BKN044 01/00 A3024 RMK A01
KLUG 080435Z AUTO 00000KT 7SM OVC043 01/00 A3024 RMK A01
KLUG 080415Z AUTO 00000KT 6SM BR BKN044 01/00 A3024 RMK A01
KLUG 080355Z AUTO 00000KT 8SM SCT045 01/01 A3024 RMK A01
KLUG 080335Z AUTO 00000KT 5SM BR SCT044 01/00 A3025 RMK A01
KLUG 080315Z AUTO 00000KT 8SM FEW045 02/01 A3025 RMK A01
KLUG 080255Z AUTO 00000KT 6SM BR CLR 02/01 A3025 RMK A01
KLUG 080235Z AUTO 00000KT 9SM CLR 02/02 A3025 RMK A01
KLUG 080215Z AUTO 00000KT 7SM CLR 02/01 A3026 RMK A01
KLUG 080155Z AUTO 00000KT 8SM CLR 03/02 A3026 RMK A01
KLUG 080135Z AUTO 18003KT 9SM CLR 03/02 A3026 RMK A01
KLUG 080115Z AUTO 00000KT 8SM CLR 04/03 A3026 RMK A01
KLUG 080055Z AUTO 00000KT 9SM CLR 04/03 A3026 RMK A01